Forres, United Kingdom
Current Conditions -  °F | °C
As of 10:50 PM on Wednesday 17 Dec 2014 (Local Time) from EGQK Reporting Station
Broken Clouds Broken Clouds  
Wind Chill: 37°   Ceiling: 4100
Heat Index: 45°   Visibility: 6mi
Dew Point: 37°   Wind: 16mph
Humidity: 76%   Direction: 230°SW
Pressure: 29.32"   Gusts: NA
Location:  57.61°N, 3.61°W
Report Text: EGQK 172250Z AUTO 23014KT 9999 BKN041/// 07/03 Q0993
Loading
Personal Weather Stations






























Interactive Weather Map New forecast layout! Learn more

10-Day Weather Forecast

Advertisements
Track Severe Weather on mobile